Time;durP1;ratioP1;P1;durP2;ratioP2;P2;SDS_P1;SDS_P2;PMS_P1;PMS_P2;Temp;Humidity;BMP_temperature;BMP_pressure;BME280_temperature;BME280_humidity;BME280_pressure;Samples;Min_cycle;Max_cycle;Signal;HPM_P1;HPM_P2
2022/10/25 00:01:16;;;;;;;;;16.75;15.00;;;;;;;;5010478;28;10712;-73
2022/10/25 00:03:41;;;;;;;;;19.75;17.00;;;;;;;;5010599;28;8786;-73
2022/10/25 00:06:10;;;;;;;;;17.75;16.25;;;;;;;;5008213;23;11222;-74
2022/10/25 00:08:36;;;;;;;;;16.75;14.75;;;;;;;;4971006;28;8819;-74
2022/10/25 00:11:01;;;;;;;;;14.25;13.50;;;;;;;;4973392;28;10401;-74
2022/10/25 00:13:26;;;;;;;;;17.75;17.00;;;;;;;;4973631;28;9399;-75
2022/10/25 00:15:52;;;;;;;;;21.25;15.25;;;;;;;;4970196;28;8816;-74
2022/10/25 00:18:17;;;;;;;;;17.25;16.00;;;;;;;;4969030;28;8919;-73
2022/10/25 00:20:45;;;;;;;;;16.75;16.75;;;;;;;;4969669;28;8835;-72
2022/10/25 00:23:10;;;;;;;;;15.25;12.50;;;;;;;;4969986;28;8831;-73
2022/10/25 00:25:36;;;;;;;;;17.25;15.50;;;;;;;;4968299;28;10443;-73
2022/10/25 00:28:01;;;;;;;;;14.25;14.00;;;;;;;;4969810;28;8819;-73
2022/10/25 00:30:26;;;;;;;;;14.75;13.00;;;;;;;;4969664;28;8941;-73
2022/10/25 00:32:52;;;;;;;;;15.25;14.50;;;;;;;;4969662;28;8823;-72
2022/10/25 00:35:18;;;;;;;;;17.25;15.00;;;;;;;;4972289;28;8850;-71
2022/10/25 00:37:43;;;;;;;;;19.50;15.50;;;;;;;;4990438;28;9584;-73
2022/10/25 00:40:08;;;;;;;;;19.50;15.75;;;;;;;;4972055;28;8921;-74
2022/10/25 00:42:34;;;;;;;;;19.00;16.25;;;;;;;;4987076;28;8827;-74
2022/10/25 00:45:01;;;;;;;;;22.00;17.00;;;;;;;;4970598;28;9558;-73
2022/10/25 00:47:36;;;;;;;;;19.75;15.50;;;;;;;;4969758;28;8859;-73
2022/10/25 00:50:21;;;;;;;;;18.75;15.00;;;;;;;;4970533;28;10518;-73
2022/10/25 00:52:49;;;;;;;;;17.75;14.00;;;;;;;;4969036;28;10555;-73
2022/10/25 00:55:15;;;;;;;;;17.75;15.00;;;;;;;;4971502;28;10478;-73
2022/10/25 00:58:02;;;;;;;;;18.25;17.00;;;;;;;;4971836;28;10459;-73
2022/10/25 01:00:27;;;;;;;;;14.75;13.00;;;;;;;;4969805;28;10643;-72
2022/10/25 01:02:52;;;;;;;;;17.25;15.50;;;;;;;;4971940;28;11103;-72
2022/10/25 01:05:24;;;;;;;;;21.75;18.50;;;;;;;;4974185;28;9013;-73
2022/10/25 01:07:50;;;;;;;;;18.00;14.00;;;;;;;;4984641;28;8831;-73
2022/10/25 01:10:18;;;;;;;;;14.50;14.25;;;;;;;;4971806;28;10452;-73
2022/10/25 01:12:43;;;;;;;;;17.75;13.75;;;;;;;;4971506;28;8799;-73
2022/10/25 01:15:09;;;;;;;;;16.75;16.00;;;;;;;;4971663;28;10562;-73
2022/10/25 01:17:34;;;;;;;;;19.00;15.00;;;;;;;;4971884;28;8811;-74
2022/10/25 01:20:17;;;;;;;;;19.75;14.25;;;;;;;;4971762;28;9003;-72
2022/10/25 01:23:01;;;;;;;;;16.25;16.00;;;;;;;;4971052;28;8828;-73
2022/10/25 01:25:37;;;;;;;;;17.75;16.00;;;;;;;;4968750;28;10443;-73
2022/10/25 01:28:08;;;;;;;;;15.75;15.25;;;;;;;;4976251;28;10551;-72
2022/10/25 01:30:49;;;;;;;;;17.00;15.25;;;;;;;;4971232;28;10436;-73
2022/10/25 01:33:29;;;;;;;;;14.75;13.75;;;;;;;;4971289;28;10584;-73
2022/10/25 01:36:15;;;;;;;;;14.50;14.00;;;;;;;;4972198;28;10479;-73
2022/10/25 01:38:49;;;;;;;;;18.00;14.00;;;;;;;;4986854;28;10745;-73
2022/10/25 01:41:32;;;;;;;;;19.50;16.00;;;;;;;;4973578;28;10507;-77
2022/10/25 01:44:03;;;;;;;;;16.75;15.00;;;;;;;;4970855;28;10575;-73
2022/10/25 01:46:28;;;;;;;;;19.25;15.50;;;;;;;;4968402;28;10579;-73
2022/10/25 01:49:14;;;;;;;;;18.25;15.75;;;;;;;;4970994;28;11249;-74
2022/10/25 01:51:39;;;;;;;;;16.50;15.50;;;;;;;;4968692;28;8860;-73
2022/10/25 01:54:21;;;;;;;;;19.25;16.25;;;;;;;;4971169;28;10368;-73
2022/10/25 01:57:19;;;;;;;;;17.00;14.50;;;;;;;;4969144;28;8832;-74
2022/10/25 02:00:01;;;;;;;;;16.00;14.00;;;;;;;;4956261;28;10655;-74
2022/10/25 02:02:26;;;;;;;;;15.25;15.00;;;;;;;;4968164;28;10644;-73
2022/10/25 02:04:51;;;;;;;;;26.00;18.25;;;;;;;;4970521;28;10863;-73
2022/10/25 02:07:22;;;;;;;;;19.00;17.25;;;;;;;;4972773;28;9016;-73
2022/10/25 02:09:56;;;;;;;;;15.25;15.00;;;;;;;;4983277;28;9574;-74
2022/10/25 02:12:29;;;;;;;;;18.25;15.00;;;;;;;;4970367;28;11087;-74
2022/10/25 02:15:17;;;;;;;;;20.00;15.00;;;;;;;;4970782;28;10801;-73
2022/10/25 02:17:44;;;;;;;;;16.25;16.25;;;;;;;;4966113;28;10874;-73
2022/10/25 02:20:12;;;;;;;;;17.00;17.00;;;;;;;;4969820;28;10903;-73
2022/10/25 02:22:37;;;;;;;;;15.75;12.50;;;;;;;;4970131;28;11008;-73
2022/10/25 02:25:05;;;;;;;;;14.50;14.50;;;;;;;;4970401;28;11054;-72
2022/10/25 02:27:31;;;;;;;;;19.75;14.75;;;;;;;;4970199;28;8823;-72
2022/10/25 02:29:57;;;;;;;;;13.75;13.75;;;;;;;;4970202;28;10902;-73
2022/10/25 02:32:22;;;;;;;;;17.25;16.25;;;;;;;;4970077;28;9515;-72
2022/10/25 02:34:48;;;;;;;;;18.00;17.00;;;;;;;;4970744;28;10951;-73
2022/10/25 02:37:16;;;;;;;;;17.75;16.75;;;;;;;;4975801;28;8823;-74
2022/10/25 02:39:41;;;;;;;;;16.00;15.75;;;;;;;;4968461;28;9567;-74
2022/10/25 02:42:07;;;;;;;;;19.25;15.25;;;;;;;;4969943;28;11149;-73
2022/10/25 02:44:32;;;;;;;;;18.75;18.00;;;;;;;;4969216;28;8847;-73
2022/10/25 02:46:57;;;;;;;;;20.00;16.75;;;;;;;;4971416;28;8910;-73
2022/10/25 02:49:23;;;;;;;;;21.00;19.00;;;;;;;;4971018;28;8942;-73
2022/10/25 02:51:48;;;;;;;;;18.75;16.50;;;;;;;;4985721;28;8820;-73
2022/10/25 02:54:13;;;;;;;;;19.25;15.25;;;;;;;;4971421;28;8975;-73
2022/10/25 02:56:38;;;;;;;;;17.25;16.00;;;;;;;;4970818;28;8939;-73
2022/10/25 02:59:04;;;;;;;;;23.00;19.00;;;;;;;;4970433;28;8850;-73
2022/10/25 03:01:29;;;;;;;;;27.00;20.50;;;;;;;;4970746;28;8830;-73
2022/10/25 03:03:54;;;;;;;;;23.75;17.50;;;;;;;;4970995;28;8824;-72
2022/10/25 03:06:20;;;;;;;;;18.50;15.50;;;;;;;;4979730;28;8910;-72
2022/10/25 03:08:45;;;;;;;;;15.25;14.50;;;;;;;;4990206;28;8797;-72
2022/10/25 03:11:11;;;;;;;;;16.00;16.00;;;;;;;;4981174;28;8824;-73
2022/10/25 03:13:36;;;;;;;;;21.75;20.00;;;;;;;;4970708;28;8804;-73
2022/10/25 03:16:02;;;;;;;;;15.25;14.50;;;;;;;;4968695;28;11160;-73
2022/10/25 03:18:27;;;;;;;;;20.50;14.75;;;;;;;;4970596;28;8804;-72
2022/10/25 03:20:59;;;;;;;;;14.25;11.50;;;;;;;;4970775;28;9529;-72
2022/10/25 03:23:25;;;;;;;;;21.75;18.25;;;;;;;;4970530;28;8826;-72
2022/10/25 03:25:52;;;;;;;;;26.25;18.00;;;;;;;;4970612;28;11202;-72
2022/10/25 03:28:17;;;;;;;;;18.00;17.75;;;;;;;;4970436;28;8820;-72
2022/10/25 03:30:42;;;;;;;;;20.50;17.75;;;;;;;;4970492;28;11418;-73
2022/10/25 03:33:08;;;;;;;;;19.00;18.75;;;;;;;;4970265;28;8826;-72
2022/10/25 03:35:33;;;;;;;;;14.25;14.25;;;;;;;;4974919;28;8832;-73
2022/10/25 03:37:59;;;;;;;;;23.50;15.50;;;;;;;;4989718;28;8793;-73
2022/10/25 03:40:27;;;;;;;;;21.00;17.00;;;;;;;;4987143;28;8847;-73
2022/10/25 03:42:52;;;;;;;;;19.00;17.50;;;;;;;;4970255;28;8815;-72
2022/10/25 03:45:17;;;;;;;;;22.50;15.75;;;;;;;;4970552;28;11508;-72
2022/10/25 03:47:43;;;;;;;;;19.00;16.75;;;;;;;;4972250;28;8816;-74
2022/10/25 03:50:08;;;;;;;;;22.00;18.50;;;;;;;;4975134;28;8840;-73
2022/10/25 03:52:33;;;;;;;;;18.75;18.75;;;;;;;;4972704;28;8826;-72
2022/10/25 03:54:59;;;;;;;;;19.25;17.75;;;;;;;;4970367;28;8792;-73
2022/10/25 03:57:24;;;;;;;;;22.25;18.00;;;;;;;;4970399;28;8807;-73
2022/10/25 03:59:49;;;;;;;;;20.25;18.75;;;;;;;;4970213;28;8820;-73
2022/10/25 04:02:15;;;;;;;;;16.00;14.50;;;;;;;;4970375;28;8822;-72
2022/10/25 04:04:40;;;;;;;;;22.25;21.25;;;;;;;;4970377;28;8819;-72
2022/10/25 04:07:05;;;;;;;;;23.00;20.00;;;;;;;;4996658;23;8879;-73
2022/10/25 04:09:30;;;;;;;;;18.00;16.75;;;;;;;;4970373;28;8863;-72
2022/10/25 04:11:56;;;;;;;;;20.00;16.00;;;;;;;;4973774;28;8839;-73
2022/10/25 04:14:21;;;;;;;;;20.25;18.50;;;;;;;;4975759;28;8943;-72
2022/10/25 04:16:47;;;;;;;;;21.50;18.50;;;;;;;;4975296;28;8788;-73
2022/10/25 04:19:12;;;;;;;;;23.50;20.00;;;;;;;;4975533;28;9407;-73
2022/10/25 04:21:37;;;;;;;;;22.25;19.50;;;;;;;;4973856;28;8834;-74
2022/10/25 04:24:03;;;;;;;;;17.50;15.75;;;;;;;;4975169;28;8792;-73
2022/10/25 04:26:28;;;;;;;;;26.75;23.25;;;;;;;;4974708;28;9572;-73
2022/10/25 04:28:54;;;;;;;;;25.00;20.25;;;;;;;;4971968;28;8846;-74
2022/10/25 04:31:20;;;;;;;;;23.25;21.25;;;;;;;;4975240;28;8780;-77
2022/10/25 04:33:49;;;;;;;;;25.00;23.50;;;;;;;;4973732;28;11609;-79
2022/10/25 04:36:15;;;;;;;;;25.75;22.75;;;;;;;;4984862;28;8887;-76
2022/10/25 04:38:40;;;;;;;;;25.25;23.50;;;;;;;;4993166;28;11521;-74
2022/10/25 04:41:05;;;;;;;;;24.00;21.25;;;;;;;;4984804;28;9681;-81
2022/10/25 04:43:31;;;;;;;;;19.75;19.25;;;;;;;;4974299;28;8833;-77
2022/10/25 04:45:58;;;;;;;;;20.25;19.00;;;;;;;;4974802;28;9550;-78
2022/10/25 04:48:23;;;;;;;;;19.50;18.75;;;;;;;;4974665;28;8934;-81
2022/10/25 04:50:49;;;;;;;;;20.50;19.00;;;;;;;;4974626;28;11598;-84
2022/10/25 04:53:14;;;;;;;;;22.75;17.25;;;;;;;;4973193;28;8823;-78
2022/10/25 04:55:39;;;;;;;;;18.50;17.25;;;;;;;;4974802;28;8804;-79
2022/10/25 04:58:04;;;;;;;;;17.00;16.00;;;;;;;;4973135;28;9609;-79
2022/10/25 05:00:30;;;;;;;;;21.50;19.25;;;;;;;;4974509;28;8799;-76
2022/10/25 05:02:55;;;;;;;;;27.50;20.25;;;;;;;;4972773;28;8828;-78
2022/10/25 05:05:21;;;;;;;;;22.50;20.00;;;;;;;;4976211;28;8940;-78
2022/10/25 05:07:47;;;;;;;;;23.75;20.50;;;;;;;;4993750;28;8797;-79
2022/10/25 05:10:12;;;;;;;;;24.00;20.75;;;;;;;;4992435;28;11536;-73
2022/10/25 05:12:37;;;;;;;;;19.25;18.00;;;;;;;;4974218;28;9736;-76
2022/10/25 05:15:03;;;;;;;;;24.75;21.50;;;;;;;;4974380;28;8894;-74
2022/10/25 05:17:29;;;;;;;;;20.25;19.75;;;;;;;;4974384;28;8800;-77
2022/10/25 05:19:54;;;;;;;;;25.75;20.00;;;;;;;;4974401;28;11290;-78
2022/10/25 05:22:19;;;;;;;;;20.75;19.75;;;;;;;;4972613;28;8826;-80
2022/10/25 05:24:44;;;;;;;;;18.00;18.00;;;;;;;;4954958;28;8929;-77
2022/10/25 05:27:09;;;;;;;;;23.50;19.75;;;;;;;;4954867;28;8803;-77
2022/10/25 05:29:35;;;;;;;;;26.00;20.00;;;;;;;;4970126;28;8882;-80
2022/10/25 05:32:00;;;;;;;;;20.25;16.25;;;;;;;;4980065;28;8811;-80
2022/10/25 05:34:26;;;;;;;;;24.50;20.25;;;;;;;;4973985;28;8803;-75
2022/10/25 05:36:51;;;;;;;;;18.75;18.00;;;;;;;;4988411;28;8939;-75
2022/10/25 05:39:17;;;;;;;;;26.50;19.50;;;;;;;;4975406;28;8843;-75
2022/10/25 05:41:42;;;;;;;;;24.25;19.75;;;;;;;;4960388;28;8813;-74
2022/10/25 05:44:07;;;;;;;;;23.75;21.50;;;;;;;;4954362;28;8795;-75
2022/10/25 05:46:33;;;;;;;;;20.00;16.75;;;;;;;;4954403;28;8814;-75
2022/10/25 05:48:59;;;;;;;;;17.25;17.25;;;;;;;;4954146;28;8798;-76
2022/10/25 05:51:25;;;;;;;;;19.75;19.75;;;;;;;;4954180;28;8802;-75
2022/10/25 05:53:52;;;;;;;;;20.25;18.25;;;;;;;;4954141;28;8786;-74
2022/10/25 05:56:19;;;;;;;;;22.75;19.50;;;;;;;;4954036;28;11215;-72
2022/10/25 05:58:44;;;;;;;;;23.25;21.25;;;;;;;;4953995;28;11171;-76
2022/10/25 06:01:11;;;;;;;;;27.00;22.00;;;;;;;;4968805;28;11293;-75
2022/10/25 06:03:36;;;;;;;;;23.75;20.75;;;;;;;;4954082;28;8832;-73
2022/10/25 06:06:04;;;;;;;;;24.00;20.00;;;;;;;;4970353;28;11946;-75
2022/10/25 06:08:29;;;;;;;;;27.75;22.75;;;;;;;;4991137;28;8826;-74
2022/10/25 06:10:59;;;;;;;;;22.00;19.00;;;;;;;;4984161;28;11333;-74
2022/10/25 06:13:24;;;;;;;;;26.75;24.75;;;;;;;;4973060;28;8819;-74
2022/10/25 06:15:50;;;;;;;;;26.00;22.00;;;;;;;;4972949;28;11610;-73
2022/10/25 06:18:15;;;;;;;;;31.25;27.00;;;;;;;;4972995;28;8897;-72
2022/10/25 06:20:40;;;;;;;;;23.50;19.50;;;;;;;;4972972;28;8824;-73
2022/10/25 06:23:06;;;;;;;;;25.75;22.75;;;;;;;;4972698;28;8830;-72
2022/10/25 06:25:31;;;;;;;;;21.75;20.25;;;;;;;;4972968;28;8877;-74
2022/10/25 06:27:56;;;;;;;;;19.25;19.00;;;;;;;;4971755;28;8942;-72
2022/10/25 06:30:21;;;;;;;;;25.50;22.00;;;;;;;;4973025;28;9519;-72
2022/10/25 06:32:47;;;;;;;;;22.50;19.50;;;;;;;;4972817;28;8815;-72
2022/10/25 06:35:12;;;;;;;;;20.50;18.75;;;;;;;;4973539;28;8807;-72
2022/10/25 06:37:37;;;;;;;;;20.75;19.75;;;;;;;;4992007;28;8828;-73
2022/10/25 06:40:03;;;;;;;;;17.50;16.25;;;;;;;;4991938;28;8842;-78
2022/10/25 06:42:28;;;;;;;;;22.00;17.00;;;;;;;;4972605;28;8938;-77
2022/10/25 06:44:53;;;;;;;;;25.75;21.25;;;;;;;;4971340;28;8850;-76
2022/10/25 06:47:18;;;;;;;;;21.75;19.75;;;;;;;;4972549;28;8816;-76
2022/10/25 06:49:44;;;;;;;;;24.00;22.25;;;;;;;;4972378;28;8824;-74
2022/10/25 06:52:09;;;;;;;;;25.50;20.75;;;;;;;;4972301;28;8812;-78
2022/10/25 06:54:35;;;;;;;;;21.00;19.50;;;;;;;;4972434;28;8874;-74
2022/10/25 06:57:00;;;;;;;;;26.00;21.00;;;;;;;;4971913;28;9577;-74
2022/10/25 06:59:25;;;;;;;;;21.75;21.00;;;;;;;;4972373;28;8804;-74
2022/10/25 07:01:51;;;;;;;;;21.25;20.75;;;;;;;;4972370;28;8811;-72
2022/10/25 07:04:16;;;;;;;;;28.50;26.75;;;;;;;;4972292;28;8800;-75
2022/10/25 07:06:41;;;;;;;;;24.25;20.50;;;;;;;;4985666;28;8845;-75
2022/10/25 07:09:11;;;;;;;;;22.75;20.25;;;;;;;;4990094;28;8797;-73
2022/10/25 07:11:37;;;;;;;;;29.00;22.00;;;;;;;;4979187;28;8816;-73
2022/10/25 07:14:03;;;;;;;;;29.25;25.50;;;;;;;;4971645;28;11219;-75
2022/10/25 07:16:29;;;;;;;;;23.50;22.50;;;;;;;;4972116;28;8922;-75
2022/10/25 07:18:58;;;;;;;;;23.25;21.00;;;;;;;;4971930;28;11087;-75
2022/10/25 07:21:23;;;;;;;;;21.50;20.00;;;;;;;;4972049;28;9076;-75
2022/10/25 07:23:49;;;;;;;;;25.25;22.50;;;;;;;;4971596;28;11235;-74
2022/10/25 07:26:34;;;;;;;;;25.25;21.75;;;;;;;;4971989;28;8836;-75
2022/10/25 07:29:00;;;;;;;;;23.00;21.00;;;;;;;;4971639;28;8800;-75
2022/10/25 07:31:27;;;;;;;;;23.50;21.00;;;;;;;;4971405;28;11018;-74
2022/10/25 07:33:53;;;;;;;;;28.25;23.00;;;;;;;;4971733;28;11682;-76
2022/10/25 07:36:19;;;;;;;;;21.00;20.00;;;;;;;;4982005;28;11122;-76
2022/10/25 07:38:44;;;;;;;;;27.25;22.25;;;;;;;;4991266;28;8805;-76
2022/10/25 07:41:11;;;;;;;;;23.50;21.50;;;;;;;;4982404;28;8816;-76
2022/10/25 07:43:36;;;;;;;;;26.50;19.25;;;;;;;;4971937;28;8792;-76
2022/10/25 07:46:01;;;;;;;;;24.75;22.00;;;;;;;;4971423;28;11221;-76
2022/10/25 07:48:27;;;;;;;;;21.50;17.50;;;;;;;;4970194;28;8827;-76
2022/10/25 07:50:52;;;;;;;;;23.25;21.50;;;;;;;;4971739;28;8827;-76
2022/10/25 07:53:17;;;;;;;;;26.50;26.00;;;;;;;;4970457;28;8947;-76
2022/10/25 07:55:48;;;;;;;;;22.75;20.25;;;;;;;;4971676;28;9074;-76
2022/10/25 07:58:13;;;;;;;;;25.75;23.00;;;;;;;;4971890;28;8906;-76
2022/10/25 08:00:38;;;;;;;;;38.25;32.50;;;;;;;;4971557;28;11083;-76
2022/10/25 08:03:04;;;;;;;;;122.25;107.25;;;;;;;;4971776;28;8780;-76
2022/10/25 08:05:29;;;;;;;;;76.00;59.50;;;;;;;;4975458;28;9031;-76
2022/10/25 08:07:54;;;;;;;;;72.00;55.75;;;;;;;;4989143;28;8833;-76
2022/10/25 08:10:20;;;;;;;;;44.00;37.00;;;;;;;;4988929;28;8868;-76
2022/10/25 08:12:45;;;;;;;;;33.00;31.75;;;;;;;;4971773;28;8830;-76
2022/10/25 08:15:11;;;;;;;;;24.25;19.25;;;;;;;;4971601;28;8795;-76
2022/10/25 08:17:36;;;;;;;;;29.50;27.00;;;;;;;;4970111;28;8823;-76
2022/10/25 08:20:01;;;;;;;;;28.00;25.75;;;;;;;;4971487;28;8831;-76
2022/10/25 08:22:26;;;;;;;;;26.25;24.75;;;;;;;;4969909;28;8934;-76
2022/10/25 08:24:52;;;;;;;;;27.00;24.00;;;;;;;;4971365;28;8799;-76
2022/10/25 08:27:17;;;;;;;;;25.25;25.00;;;;;;;;4971101;28;8856;-76
2022/10/25 08:29:42;;;;;;;;;36.25;33.25;;;;;;;;4971048;28;8824;-76
2022/10/25 08:32:07;;;;;;;;;37.25;34.25;;;;;;;;4971365;28;8821;-76
2022/10/25 08:34:33;;;;;;;;;34.75;32.25;;;;;;;;4971198;28;8796;-76
2022/10/25 08:36:58;;;;;;;;;67.75;53.00;;;;;;;;4986538;28;8785;-76
2022/10/25 08:39:23;;;;;;;;;31.75;29.25;;;;;;;;4990713;28;8956;-76
2022/10/25 08:41:56;;;;;;;;;42.00;38.50;;;;;;;;4976577;28;8796;-76
2022/10/25 08:44:24;;;;;;;;;43.00;37.00;;;;;;;;4969979;28;8946;-76
2022/10/25 08:46:55;;;;;;;;;39.25;34.50;;;;;;;;4969349;28;12294;-76
2022/10/25 08:49:25;;;;;;;;;34.00;31.00;;;;;;;;4970981;28;11357;-77
2022/10/25 08:51:51;;;;;;;;;29.00;26.50;;;;;;;;4971165;28;11623;-77
2022/10/25 08:54:26;;;;;;;;;28.25;23.00;;;;;;;;4971013;28;10666;-76
2022/10/25 08:56:58;;;;;;;;;26.00;22.00;;;;;;;;4971917;28;10311;-76
2022/10/25 08:59:29;;;;;;;;;28.50;26.00;;;;;;;;4973315;28;10358;-75
2022/10/25 09:01:56;;;;;;;;;22.25;20.75;;;;;;;;4973176;28;10351;-76
2022/10/25 09:04:21;;;;;;;;;18.25;16.25;;;;;;;;4974150;28;11074;-76
2022/10/25 09:06:53;;;;;;;;;20.50;19.75;;;;;;;;4988606;28;9967;-76
2022/10/25 09:09:38;;;;;;;;;21.50;19.25;;;;;;;;4993825;28;8871;-76
2022/10/25 09:12:16;;;;;;;;;16.75;15.00;;;;;;;;4976881;28;9856;-76
2022/10/25 09:14:45;;;;;;;;;19.25;17.25;;;;;;;;4974306;28;9882;-76
2022/10/25 09:17:20;;;;;;;;;21.25;15.50;;;;;;;;4974204;28;9826;-76
2022/10/25 09:20:08;;;;;;;;;22.50;19.50;;;;;;;;4974291;28;9654;-76
2022/10/25 09:22:53;;;;;;;;;19.00;17.00;;;;;;;;4973523;28;9554;-76
2022/10/25 09:25:29;;;;;;;;;21.00;17.67;;;;;;;;4974321;28;9546;-76
2022/10/25 09:27:59;;;;;;;;;22.33;19.00;;;;;;;;4972813;28;9362;-76
2022/10/25 09:30:26;;;;;;;;;18.00;17.33;;;;;;;;4973951;28;9177;-77
2022/10/25 09:32:53;;;;;;;;;17.00;16.67;;;;;;;;4974123;28;9070;-76
2022/10/25 09:35:24;;;;;;;;;19.00;18.00;;;;;;;;4976418;28;9050;-76
2022/10/25 09:37:58;;;;;;;;;16.67;16.00;;;;;;;;4993166;28;9047;-77
2022/10/25 09:40:26;;;;;;;;;18.33;16.33;;;;;;;;4990816;28;9010;-77
2022/10/25 09:42:55;;;;;;;;;22.67;20.67;;;;;;;;4972217;28;8993;-77
2022/10/25 09:45:27;;;;;;;;;22.00;20.33;;;;;;;;4974036;28;9241;-77
2022/10/25 09:48:11;;;;;;;;;18.67;18.67;;;;;;;;4972474;28;9300;-78
2022/10/25 09:50:45;;;;;;;;;21.00;19.00;;;;;;;;4972385;28;9154;-77
2022/10/25 09:53:15;;;;;;;;;22.33;19.00;;;;;;;;4973605;28;9308;-77
2022/10/25 09:55:43;;;;;;;;;24.00;20.67;;;;;;;;4972550;28;9374;-77
2022/10/25 09:58:26;;;;;;;;;21.50;16.75;;;;;;;;4971796;28;9483;-77
2022/10/25 10:00:52;;;;;;;;;81.50;69.00;;;;;;;;4973604;28;10339;-76
2022/10/25 10:03:19;;;;;;;;;86.00;72.67;;;;;;;;4973539;28;11637;-78
2022/10/25 10:08:23;;;;;;;;;17.33;15.67;;;;;;;;5028865;28;9494;-69
2022/10/25 10:10:49;;;;;;;;;17.00;16.00;;;;;;;;5030502;28;9527;-71
2022/10/25 10:13:17;;;;;;;;;14.00;11.33;;;;;;;;5029254;28;8836;-71
2022/10/25 10:15:55;;;;;;;;;18.00;14.00;;;;;;;;5030346;28;9311;-71
2022/10/25 10:18:21;;;;;;;;;17.67;15.00;;;;;;;;5030682;28;9106;-71
2022/10/25 10:21:04;;;;;;;;;18.00;14.33;;;;;;;;5030656;28;8957;-70
2022/10/25 10:23:31;;;;;;;;;16.00;15.67;;;;;;;;5030405;28;8969;-70
2022/10/25 10:25:59;;;;;;;;;16.00;11.33;;;;;;;;5030318;28;9114;-71
2022/10/25 10:28:24;;;;;;;;;19.67;17.67;;;;;;;;5030118;28;8959;-71
2022/10/25 10:30:53;;;;;;;;;17.00;13.00;;;;;;;;5030279;28;9238;-71
2022/10/25 10:33:19;;;;;;;;;22.00;20.50;;;;;;;;5029585;28;8804;-71
2022/10/25 10:35:44;;;;;;;;;14.00;9.67;;;;;;;;5029924;28;8800;-71
2022/10/25 10:38:26;;;;;;;;;15.00;14.00;;;;;;;;5030241;28;8792;-71
2022/10/25 10:41:14;;;;;;;;;15.25;13.50;;;;;;;;5030057;28;8842;-70
2022/10/25 10:43:40;;;;;;;;;16.00;13.50;;;;;;;;5029515;28;9512;-71
2022/10/25 10:46:12;;;;;;;;;15.67;14.67;;;;;;;;5028006;28;8831;-72
2022/10/25 10:48:40;;;;;;;;;15.75;15.00;;;;;;;;5010721;28;8810;-71
2022/10/25 10:51:05;;;;;;;;;13.50;12.75;;;;;;;;5011782;28;8846;-73
2022/10/25 10:53:31;;;;;;;;;13.67;12.00;;;;;;;;5010166;28;8822;-72
2022/10/25 10:56:06;;;;;;;;;17.50;15.00;;;;;;;;5010251;28;9573;-75
2022/10/25 10:58:37;;;;;;;;;16.50;14.75;;;;;;;;5010086;28;8786;-72
2022/10/25 11:01:07;;;;;;;;;15.00;14.00;;;;;;;;5008571;28;8831;-73
2022/10/25 11:03:41;;;;;;;;;15.00;12.00;;;;;;;;5010184;28;8806;-71
2022/10/25 11:06:16;;;;;;;;;19.00;16.67;;;;;;;;5018362;28;8916;-75
2022/10/25 11:08:42;;;;;;;;;13.67;13.67;;;;;;;;5029073;28;9053;-75
2022/10/25 11:11:11;;;;;;;;;17.33;15.00;;;;;;;;5029695;28;8965;-74
2022/10/25 11:13:37;;;;;;;;;19.67;14.67;;;;;;;;5029530;28;8899;-74
2022/10/25 11:16:21;;;;;;;;;17.00;14.67;;;;;;;;5029368;28;9133;-75
2022/10/25 11:18:46;;;;;;;;;15.00;14.00;;;;;;;;5028786;28;8812;-74
2022/10/25 11:21:26;;;;;;;;;17.33;15.67;;;;;;;;5028925;28;9341;-74
2022/10/25 11:24:01;;;;;;;;;17.75;14.75;;;;;;;;5025645;28;8969;-74
2022/10/25 11:26:35;;;;;;;;;16.25;14.50;;;;;;;;5027900;28;9655;-75
2022/10/25 11:29:04;;;;;;;;;14.33;14.33;;;;;;;;5029646;28;10146;-74
2022/10/25 11:31:32;;;;;;;;;17.00;16.00;;;;;;;;5029427;28;9465;-74
2022/10/25 11:33:57;;;;;;;;;15.00;14.00;;;;;;;;5027894;28;9302;-73
2022/10/25 11:36:29;;;;;;;;;18.67;16.00;;;;;;;;5029314;28;9204;-74
2022/10/25 11:39:03;;;;;;;;;16.67;14.67;;;;;;;;5025671;28;8870;-73
2022/10/25 11:41:47;;;;;;;;;20.33;14.67;;;;;;;;5029141;28;10094;-73
2022/10/25 11:44:13;;;;;;;;;19.00;15.00;;;;;;;;5026312;28;10022;-73
2022/10/25 11:46:41;;;;;;;;;18.00;16.00;;;;;;;;5029156;28;9369;-73
2022/10/25 11:49:13;;;;;;;;;18.00;17.00;;;;;;;;5028947;28;8800;-73
2022/10/25 11:51:38;;;;;;;;;19.67;17.67;;;;;;;;5029202;28;9257;-72
2022/10/25 11:54:06;;;;;;;;;14.00;12.67;;;;;;;;5028889;28;9379;-72
2022/10/25 11:56:40;;;;;;;;;20.33;16.67;;;;;;;;5026365;28;8820;-74
2022/10/25 11:59:15;;;;;;;;;17.33;15.67;;;;;;;;5027238;28;9272;-73
2022/10/25 12:01:55;;;;;;;;;16.67;16.00;;;;;;;;5028449;28;9333;-74
2022/10/25 12:04:29;;;;;;;;;17.33;15.00;;;;;;;;5027588;28;9199;-74
2022/10/25 12:07:13;;;;;;;;;15.25;13.75;;;;;;;;5026450;28;9249;-72
2022/10/25 12:09:51;;;;;;;;;14.25;14.00;;;;;;;;5027171;28;9424;-73
2022/10/25 12:12:18;;;;;;;;;16.00;15.00;;;;;;;;5026926;28;9337;-74
2022/10/25 12:14:46;;;;;;;;;17.00;15.33;;;;;;;;5028687;28;9298;-73
2022/10/25 12:17:19;;;;;;;;;15.33;14.00;;;;;;;;5024440;28;9280;-73
2022/10/25 12:19:45;;;;;;;;;16.00;12.67;;;;;;;;5025197;28;9327;-72
2022/10/25 12:22:15;;;;;;;;;16.00;14.00;;;;;;;;5028026;28;9080;-72
2022/10/25 12:24:46;;;;;;;;;15.00;14.67;;;;;;;;5028089;28;9207;-73
2022/10/25 12:27:15;;;;;;;;;16.67;14.33;;;;;;;;5027557;28;9276;-72
2022/10/25 12:29:43;;;;;;;;;13.00;13.00;;;;;;;;5028600;28;9288;-73
2022/10/25 12:32:14;;;;;;;;;15.00;14.00;;;;;;;;5012127;28;9166;-72
2022/10/25 12:34:41;;;;;;;;;15.33;14.00;;;;;;;;5030850;28;9297;-72
2022/10/25 12:37:10;;;;;;;;;15.67;15.33;;;;;;;;5032333;28;9283;-72
2022/10/25 12:39:35;;;;;;;;;16.33;15.00;;;;;;;;5031372;28;9312;-72
2022/10/25 12:42:03;;;;;;;;;16.00;13.00;;;;;;;;5032221;28;8956;-72
2022/10/25 12:44:50;;;;;;;;;16.33;15.33;;;;;;;;5028310;28;8808;-73
2022/10/25 12:47:34;;;;;;;;;18.50;17.50;;;;;;;;5032317;28;9219;-73
2022/10/25 12:50:22;;;;;;;;;19.00;14.67;;;;;;;;5030603;28;9367;-71
2022/10/25 12:52:54;;;;;;;;;14.00;13.25;;;;;;;;5026642;28;9366;-74
2022/10/25 12:55:31;;;;;;;;;16.67;13.00;;;;;;;;5032287;28;9426;-72
2022/10/25 12:57:56;;;;;;;;;15.67;14.00;;;;;;;;5030579;28;9382;-74
2022/10/25 13:00:22;;;;;;;;;17.75;14.00;;;;;;;;5029854;28;9388;-72
2022/10/25 13:03:13;;;;;;;;;17.25;16.25;;;;;;;;5028182;28;8828;-72
2022/10/25 13:05:54;;;;;;;;;21.50;16.00;;;;;;;;5031479;28;9730;-73
2022/10/25 13:08:21;;;;;;;;;16.25;13.50;;;;;;;;5030288;28;9804;-73
2022/10/25 13:10:48;;;;;;;;;16.25;13.00;;;;;;;;5030253;28;9539;-73
2022/10/25 13:13:20;;;;;;;;;16.75;14.00;;;;;;;;5035096;28;9660;-71
2022/10/25 13:15:46;;;;;;;;;19.50;14.25;;;;;;;;5031941;28;9568;-72
2022/10/25 13:18:26;;;;;;;;;19.50;18.00;;;;;;;;5030651;28;9454;-73
2022/10/25 13:20:51;;;;;;;;;17.75;15.75;;;;;;;;5031950;28;9844;-74
2022/10/25 13:23:35;;;;;;;;;17.00;15.00;;;;;;;;5031664;28;9432;-73
2022/10/25 13:26:03;;;;;;;;;20.67;16.33;;;;;;;;5031736;28;8841;-72
2022/10/25 13:28:29;;;;;;;;;14.00;13.00;;;;;;;;5031646;28;10124;-72
2022/10/25 13:31:14;;;;;;;;;19.00;15.75;;;;;;;;5031557;28;9296;-73
2022/10/25 13:33:39;;;;;;;;;19.00;15.67;;;;;;;;5031007;28;8788;-73
2022/10/25 13:36:05;;;;;;;;;17.00;13.33;;;;;;;;5030608;28;9288;-72
2022/10/25 13:38:32;;;;;;;;;15.67;12.00;;;;;;;;5030604;28;8858;-74
2022/10/25 13:41:03;;;;;;;;;16.00;13.33;;;;;;;;5030749;28;9660;-74
2022/10/25 13:43:29;;;;;;;;;18.33;15.33;;;;;;;;5030675;28;9301;-74
2022/10/25 13:45:54;;;;;;;;;19.25;16.75;;;;;;;;5030943;28;9304;-74
2022/10/25 13:48:30;;;;;;;;;17.67;12.00;;;;;;;;5031017;28;8823;-74
2022/10/25 13:50:57;;;;;;;;;14.67;13.00;;;;;;;;5028433;28;8921;-74
2022/10/25 13:53:24;;;;;;;;;19.00;16.50;;;;;;;;5029448;28;9427;-74
2022/10/25 13:56:19;;;;;;;;;16.00;14.00;;;;;;;;5030749;28;9570;-75
2022/10/25 13:58:48;;;;;;;;;14.67;12.67;;;;;;;;5009122;28;9373;-76
2022/10/25 14:01:16;;;;;;;;;13.50;11.25;;;;;;;;5008544;28;9323;-75
2022/10/25 14:03:46;;;;;;;;;15.00;13.67;;;;;;;;5008559;28;9493;-74
2022/10/25 14:06:21;;;;;;;;;13.50;11.50;;;;;;;;5008924;28;9428;-75
2022/10/25 14:08:50;;;;;;;;;13.25;13.00;;;;;;;;5008678;28;9636;-76
2022/10/25 14:11:20;;;;;;;;;13.00;13.00;;;;;;;;5008538;28;9374;-77
2022/10/25 14:14:15;;;;;;;;;16.50;13.50;;;;;;;;5008520;28;9492;-75
2022/10/25 14:16:52;;;;;;;;;18.50;16.50;;;;;;;;4990717;28;10205;-76
2022/10/25 14:19:20;;;;;;;;;14.50;12.75;;;;;;;;5008567;28;9555;-74
2022/10/25 14:21:47;;;;;;;;;13.00;13.00;;;;;;;;5008655;28;9340;-75
2022/10/25 14:24:13;;;;;;;;;18.00;14.75;;;;;;;;5008227;28;9392;-73
2022/10/25 14:26:48;;;;;;;;;14.25;14.00;;;;;;;;5008179;28;9482;-79
2022/10/25 14:29:14;;;;;;;;;12.50;11.00;;;;;;;;5008601;28;9680;-76
2022/10/25 14:31:39;;;;;;;;;16.25;15.00;;;;;;;;5008479;28;9423;-75
2022/10/25 14:34:15;;;;;;;;;18.25;15.75;;;;;;;;5009748;28;8798;-74
2022/10/25 14:36:46;;;;;;;;;16.00;16.00;;;;;;;;5030631;28;8784;-75
2022/10/25 14:39:16;;;;;;;;;17.50;13.50;;;;;;;;5026982;28;9753;-73